»·PEaware :: N458WA KSNA-KBLH

N458WA :: KSNA-KBLH

FLIGHT INFORMATION

Flight Status: Arrived
Operator: Privately registered:
United States
More flights under this callsign
Pilot: Charles S. (11412)
Aircraft: BEECH AIRCRAFT BARON
(BE58)
More flights by this aircraft type
Origin: KSNA John Wayne-Orange Co
United States
Destination: KBLH Blythe
United States
More flights between these airports :: More routes between these airports
Route: +SLI V64 BLH
File this flight plan on PilotEdge
Remarks:
Altitude:
(Current/Filed)
11,000ft
Speed:
(Current/Filed)
115kts
Departed: 22-Nov-17 04:55 PM
Arrived: 22-Nov-17 06:00 PM
Distance/Time
Traveled:
158nm/1:04
Distance/Time
To Go:
Arrived

Flight Plot

Page will automatically refresh every two minutes.

Flight plan parsing failed; only flown route is shown


Map Options




Map Legend


Flown Route
Filed Route
Departure Airport
Arrival Airport
Navaid (VOR, NDB)
Fix

Horizontal Profiles

Position Reports

Time Latitude Longitude Heading Altitude Ground
Speed
22-Nov-17 16:24 33.674341 -117.871884 28 57ft 0kts
22-Nov-17 16:25 33.674341 -117.871884 28 57ft 0kts
22-Nov-17 16:26 33.674341 -117.871884 28 57ft 0kts
22-Nov-17 16:27 33.674341 -117.871884 28 57ft 0kts
22-Nov-17 16:28 33.674341 -117.871884 28 57ft 0kts
22-Nov-17 16:29 33.674341 -117.871884 28 57ft 0kts
22-Nov-17 16:30 33.674341 -117.871884 28 57ft 0kts
22-Nov-17 16:31 33.674341 -117.871884 28 57ft 0kts
22-Nov-17 16:32 33.674341 -117.871884 28 57ft 0kts
22-Nov-17 16:33 33.674341 -117.871884 28 57ft 0kts
22-Nov-17 16:34 33.674341 -117.871884 28 57ft 0kts
22-Nov-17 16:35 33.674341 -117.871884 28 57ft 0kts
22-Nov-17 16:36 33.674341 -117.871884 28 57ft 0kts
22-Nov-17 16:37 33.674341 -117.871884 28 57ft 0kts
22-Nov-17 16:38 33.674341 -117.871884 28 57ft 0kts
22-Nov-17 16:39 33.674341 -117.871884 28 57ft 0kts
22-Nov-17 16:40 33.674341 -117.871884 28 57ft 0kts
22-Nov-17 16:41 33.674341 -117.871884 28 57ft 0kts
22-Nov-17 16:42 33.674341 -117.871884 28 57ft 0kts
22-Nov-17 16:43 33.674341 -117.871884 28 57ft 0kts
22-Nov-17 16:44 33.674341 -117.871884 28 57ft 0kts
22-Nov-17 16:45 33.674341 -117.871884 28 57ft 0kts
22-Nov-17 16:46 33.674341 -117.871884 28 57ft 0kts
22-Nov-17 16:47 33.674341 -117.871884 28 57ft 0kts
22-Nov-17 16:48 33.674341 -117.871884 28 57ft 0kts
22-Nov-17 16:49 33.674341 -117.871884 28 57ft 0kts
22-Nov-17 16:50 33.674471 -117.871849 24 57ft 2kts
22-Nov-17 16:51 33.674492 -117.871732 114 57ft 0kts
22-Nov-17 16:52 33.674492 -117.871732 114 57ft 0kts
22-Nov-17 16:53 33.674492 -117.871732 114 57ft 0kts
22-Nov-17 16:54 33.674492 -117.871732 114 57ft 0kts
22-Nov-17 16:55 33.674492 -117.871732 114 57ft 0kts
22-Nov-17 16:56 33.674974 -117.870873 34 57ft 18kts
22-Nov-17 16:57 33.681249 -117.866907 58 57ft 16kts
22-Nov-17 16:58 33.681251 -117.866427 115 57ft 0kts
22-Nov-17 16:59 33.681251 -117.866427 115 57ft 0kts
22-Nov-17 17:00 33.668342 -117.873420 208 146ft 114kts
22-Nov-17 17:01 33.641810 -117.905592 230 1046ft 144kts
22-Nov-17 17:02 33.616758 -117.942247 230 2250ft 143kts
22-Nov-17 17:03 33.591323 -117.978806 230 3374ft 143kts
22-Nov-17 17:04 33.571394 -118.017887 285 4380ft 142kts
22-Nov-17 17:05 33.605648 -118.021428 19 5336ft 144kts
22-Nov-17 17:06 33.642380 -118.003204 19 6274ft 143kts
22-Nov-17 17:07 33.678854 -117.985258 19 7146ft 142kts
22-Nov-17 17:08 33.716226 -117.955998 79 6999ft 183kts
22-Nov-17 17:09 33.716579 -117.894406 89 7145ft 182kts
22-Nov-17 17:10 33.716156 -117.836148 88 7669ft 172kts
22-Nov-17 17:11 33.715675 -117.778879 88 8111ft 171kts
22-Nov-17 17:12 33.715029 -117.721853 88 8519ft 170kts
22-Nov-17 17:13 33.702494 -117.677029 110 8834ft 171kts
22-Nov-17 17:14 33.684668 -117.624014 110 9209ft 170kts
22-Nov-17 17:15 33.665089 -117.565749 109 9600ft 170kts
22-Nov-17 17:16 33.650456 -117.521989 109 9880ft 170kts
22-Nov-17 17:17 33.633201 -117.470357 109 10203ft 169kts
22-Nov-17 17:18 33.615768 -117.417643 109 10502ft 170kts
22-Nov-17 17:19 33.600808 -117.364387 92 10798ft 169kts
22-Nov-17 17:20 33.605246 -117.308256 81 10977ft 173kts
22-Nov-17 17:21 33.610990 -117.251147 81 10994ft 178kts
22-Nov-17 17:22 33.616702 -117.194334 81 11014ft 179kts
22-Nov-17 17:23 33.622395 -117.137574 81 11034ft 180kts
22-Nov-17 17:24 33.628645 -117.078666 81 11043ft 180kts
22-Nov-17 17:25 33.634857 -117.019353 81 11043ft 180kts
22-Nov-17 17:26 33.640986 -116.960160 81 11042ft 179kts
22-Nov-17 17:27 33.647117 -116.900609 81 11042ft 178kts
22-Nov-17 17:28 33.653111 -116.842069 81 11042ft 177kts
22-Nov-17 17:29 33.658954 -116.784749 81 11042ft 176kts
22-Nov-17 17:30 33.664895 -116.726215 81 11042ft 176kts
22-Nov-17 17:31 33.670789 -116.667816 81 11042ft 176kts
22-Nov-17 17:32 33.667827 -116.609047 93 11040ft 177kts
22-Nov-17 17:33 33.662736 -116.549959 93 11033ft 178kts
22-Nov-17 17:34 33.657625 -116.491036 93 11025ft 178kts
22-Nov-17 17:35 33.652470 -116.431969 93 11016ft 178kts
22-Nov-17 17:36 33.647294 -116.373024 93 11009ft 178kts
22-Nov-17 17:37 33.642195 -116.315236 94 11005ft 178kts
22-Nov-17 17:38 33.636944 -116.256021 94 11002ft 178kts
22-Nov-17 17:39 33.631649 -116.196643 94 10999ft 178kts
22-Nov-17 17:40 33.627987 -116.137536 89 10997ft 178kts
22-Nov-17 17:41 33.626948 -116.078205 89 10997ft 178kts
22-Nov-17 17:42 33.625875 -116.018739 89 10997ft 178kts
22-Nov-17 17:43 33.624782 -115.960203 89 10997ft 178kts
22-Nov-17 17:44 33.623659 -115.900929 89 10997ft 178kts
22-Nov-17 17:45 33.622503 -115.841591 89 10959ft 180kts
22-Nov-17 17:46 33.621302 -115.781769 89 10950ft 178kts
22-Nov-17 17:47 33.620083 -115.722538 89 10951ft 178kts
22-Nov-17 17:48 33.618836 -115.663131 89 10951ft 178kts
22-Nov-17 17:49 33.617559 -115.603829 89 10951ft 178kts
22-Nov-17 17:50 33.616245 -115.544440 89 10951ft 178kts
22-Nov-17 17:51 33.614905 -115.484863 89 10950ft 178kts
22-Nov-17 17:52 33.613545 -115.425543 89 10952ft 178kts
22-Nov-17 17:53 33.612151 -115.366228 89 10963ft 178kts
22-Nov-17 17:54 33.610723 -115.306921 89 10975ft 178kts
22-Nov-17 17:55 33.609143 -115.247488 89 10986ft 178kts
22-Nov-17 17:56 33.607655 -115.187924 89 10997ft 178kts
22-Nov-17 17:57 33.606147 -115.128443 89 10997ft 178kts
22-Nov-17 17:58 33.604520 -115.063634 89 9900ft 214kts
22-Nov-17 17:59 33.602598 -114.993540 89 8402ft 185kts
22-Nov-17 18:00 33.601890 -114.936646 78 6657ft 173kts
22-Nov-17 18:01 33.611683 -114.872691 79 4865ft 209kts
22-Nov-17 18:02 33.618091 -114.803360 91 2344ft 184kts
22-Nov-17 18:03 33.616632 -114.757609 87 969ft 122kts
22-Nov-17 18:04 33.616536 -114.720196 85 399ft 84kts
22-Nov-17 18:05 33.614629 -114.714533 95 399ft 0kts
22-Nov-17 18:06 33.614629 -114.714533 95 399ft 0kts
22-Nov-17 18:07 33.614629 -114.714533 95 399ft 0kts

Navigation Log

Ident Type
Flight plan parsing failed, navigation log unavailable